AirNav   Pilot Hours Calculator
 
 1097 users online  

5FL5 Palm Beach County Judicial Center Heliport
West Palm Beach, Florida, USA

GOING TO WEST PALM BEACH?


FAA INFORMATION EFFECTIVE 07 NOVEMBER 2019

Location

FAA Identifier: 5FL5
Lat/Long: 26-42-55.4700N 080-03-15.8400W
26-42.924500N 080-03.264000W
26.7154083,-80.0544000
(estimated)
Elevation: 297 ft. / 91 m (estimated)
Variation: 05W (1995)
Time zone: UTC -5 (UTC -4 during Daylight Saving Time)
Zip code: 33401

Heliport Operations

Heliport use: Private use. Permission required prior to landing
Activation date: 08/1996
Control tower: no
ARTCC: MIAMI CENTER
FSS: MIAMI FLIGHT SERVICE STATION
Attendance: UNATNDD
Wind indicator: lighted
Segmented circle: no
Lights: FOR PERIMETER LGTS CALL 407-355-2255.

Heliport Communications

WX ASOS at PBI (2.9 nm SW): 123.75 (561-683-2548)
WX AWOS-3PT at LNA (8 nm S): 119.925 (561-964-0308)
WX AWOS-3 at F45 (12 nm NW): 119.975 (561-630-6932)

Nearby radio navigation aids

VOR radial/distance  VOR name  Freq  Var
PBIr042/2.7PALM BEACH VORTAC115.7003W
PHKr097/34.4PAHOKEE VOR/DME115.4000E
FLLr015/39.0FORT LAUDERDALE VOR/DME114.4006W

 
NDB name  Hdg/Dist  Freq  Var  ID
UNITED133/19.040505WUTX ..- - -..-

Heliport Services

Runway Information

Helipad H1

Dimensions: 40 x 40 ft. / 12 x 12 m
Surface: concrete
ROOFTOP.
Runway edge lights: PERI
Latitude: 26-42.924500N
Longitude: 080-03.264000W
Elevation: 297.0 ft.
Traffic pattern: leftleft

Heliport Ownership and Management from official FAA records

Ownership: Privately-owned
Owner: PALM BEACH COUNTY
301 N OLIVE AVE
WEST PALM BEACH, FL 33401
Phone 407-355-4137
Manager: HORST HAEUSSER
301 N OLIVE AVE RM 206
WEST PALM BEACH, FL 33401
Phone 407-355-2255

Additional Remarks

FOR CD CTC PALM BEACH APCH AT 561-275-1430

Instrument Procedures

There are no published instrument procedures at 5FL5.

Some nearby airports with instrument procedures:

KPBI - Palm Beach International Airport (3 nm SW)
KLNA - Palm Beach County Park Airport (8 nm S)
F45 - North Palm Beach County General Aviation Airport (12 nm NW)
06FA - William P Gwinn Airport (19 nm NW)
KBCT - Boca Raton Airport (20 nm S)
 
Loc | Ops | Rwys | IFR | FBO | Links
Com | Nav | Svcs | Stats | Notes


 
Area around 5FL5 (Palm Beach County Judicial Center Heliport)
 
Road maps at: MapQuest Bing Google
 
Aerial photo
No photo
 
Sectional chart

 
Airport distance calculator
Flying to Palm Beach County Judicial Center Heliport? Find the distance to fly.

From to 5FL5

Sunrise and sunset
Times for 21-Nov-2019
 Local
(UTC-5)
 Zulu
(UTC)
Morning civil twilight06:2011:20
Sunrise06:4511:45
Sunset17:2722:27
Evening civil twilight17:5222:52

Current date and time
Zulu (UTC)  22-Nov-2019 00:37:58
Local (UTC-5)  21-Nov-2019 19:37:58
 
METAR
KPBI 
3nm SW 
212353Z 07006KT 10SM SCT045 SCT055 24/13 A3013 RMK AO2 SLP203 T02390133 10256 20233 51005 $
KLNA 
8nm S 
220015Z AUTO 08007KT 10SM SCT045 BKN055 24/15 A3014 RMK AO2 T02360148 PNO
KF45 
12nm NW 
220010Z AUTO 00000KT 10SM BKN043 OVC050 19/17 A3016 RMK AO2 TSNO
TAF
KPBI 
3nm SW 
212050Z 2121/2218 07011KT P6SM SCT045 BKN060 FM220200 07005KT P6SM SCT035 FM221400 10010KT P6SM SCT040
NOTAMs
Click for the latest NOTAMs
NOTAMs are issued by the DoD/FAA and will open in a separate window not controlled by AirNav.

 

 
 

Would you like to see your business listed on this page?

 If your business provides an interesting product or service to pilots, flight crews, aircraft, or users of the Palm Beach County Judicial Center Heliport, you should consider listing it here.  To start the listing process, click on the button below
 
Add a business
 

Other Pages about Palm Beach County Judicial Center Heliport

Update a link
 
Copyright © AirNav, LLC. All rights reserved. Privacy Policy  Contact